Time;durP1;ratioP1;P1;durP2;ratioP2;P2;SDS_P1;SDS_P2;PMS_P1;PMS_P2;Temp;Humidity;BMP_temperature;BMP_pressure;BME280_temperature;BME280_humidity;BME280_pressure;Samples;Min_cycle;Max_cycle;Signal;HPM_P1;HPM_P2
2022/04/17 00:01:30;;;;;;;;;;;;;;;;;;5096382;28;28216;-83
2022/04/17 00:03:55;;;;;;;;;;;;;;;;;;5096813;28;28392;-83
2022/04/17 00:06:20;;;;;;;;;;;;;;;;;;5096206;28;29675;-83
2022/04/17 00:08:45;;;;;;;;;;;;;;;;;;5096069;28;28382;-83
2022/04/17 00:11:10;;;;;;;;;;;;;;;;;;5096363;28;28572;-83
2022/04/17 00:13:36;;;;;;;;;;;;;;;;;;5096319;28;28300;-83
2022/04/17 00:16:01;;;;;;;;;;;;;;;;;;5096000;27;28567;-83
2022/04/17 00:18:26;;;;;;;;;;;;;;;;;;5096384;28;28381;-83
2022/04/17 00:20:51;;;;;;;;;;;;;;;;;;5095991;28;28603;-83
2022/04/17 00:23:16;;;;;;;;;;;;;;;;;;5096297;28;28465;-83
2022/04/17 00:25:41;;;;;;;;;;;;;;;;;;5096024;28;28381;-83
2022/04/17 00:28:07;;;;;;;;;;;;;;;;;;5096118;28;28353;-83
2022/04/17 00:30:32;;;;;;;;;;;;;;;;;;5095954;28;28466;-83
2022/04/17 00:32:57;;;;;;;;;;;;;;;;;;5096298;27;28528;-83
2022/04/17 00:35:22;;;;;;;;;;;;;;;;;;5095754;28;28444;-83
2022/04/17 00:37:47;;;;;;;;;;;;;;;;;;5095275;28;28520;-82
2022/04/17 00:40:13;;;;;;;;;;;;;;;;;;5095511;28;28486;-83
2022/04/17 00:42:41;;;;;;;;;;;;;;;;;;5095296;27;28323;-83
2022/04/17 00:45:06;;;;;;;;;;;;;;;;;;5095479;27;28470;-83
2022/04/17 00:47:31;;;;;;;;;;;;;;;;;;5095629;28;28419;-83
2022/04/17 00:49:56;;;;;;;;;;;;;;;;;;5095846;28;28495;-83
2022/04/17 00:52:22;;;;;;;;;;;;;;;;;;5095606;27;28730;-83
2022/04/17 00:54:47;;;;;;;;;;;;;;;;;;5111275;27;29286;-83
2022/04/17 00:57:12;;;;;;;;;;;;;;;;;;5095758;28;28444;-83
2022/04/17 00:59:37;;;;;;;;;;;;;;;;;;5111251;27;28374;-83
2022/04/17 01:02:03;;;;;;;;;;;;;;;;;;5095629;28;28508;-83
2022/04/17 01:04:28;;;;;;;;;;;;;;;;;;5095596;27;28759;-83
2022/04/17 01:06:53;;;;;;;;;;;;;;;;;;5095379;28;27834;-83
2022/04/17 01:09:18;;;;;;;;;;;;;;;;;;5095493;28;28386;-83
2022/04/17 01:11:43;;;;;;;;;;;;;;;;;;5111174;27;28704;-83
2022/04/17 01:14:11;;;;;;;;;;;;;;;;;;5110877;27;30530;-83
2022/04/17 01:16:36;;;;;;;;;;;;;;;;;;5095258;27;27855;-83
2022/04/17 01:19:03;;;;;;;;;;;;;;;;;;5094929;27;28451;-83
2022/04/17 01:21:28;;;;;;;;;;;;;;;;;;5095543;27;28394;-83
2022/04/17 01:26:56;;;;;;;;;;;;;;;;;;5095110;28;28432;-83
2022/04/17 01:29:21;;;;;;;;;;;;;;;;;;5095059;28;28366;-83
2022/04/17 01:31:46;;;;;;;;;;;;;;;;;;5095428;28;28468;-83
2022/04/17 01:34:11;;;;;;;;;;;;;;;;;;5094625;27;28515;-83
2022/04/17 01:36:37;;;;;;;;;;;;;;;;;;5110659;27;28528;-83
2022/04/17 01:39:02;;;;;;;;;;;;;;;;;;5095053;28;28368;-83
2022/04/17 01:41:27;;;;;;;;;;;;;;;;;;5094730;28;28397;-83
2022/04/17 01:43:52;;;;;;;;;;;;;;;;;;5094808;28;28511;-83
2022/04/17 01:46:17;;;;;;;;;;;;;;;;;;5094601;28;28400;-82
2022/04/17 01:48:44;;;;;;;;;;;;;;;;;;5094311;28;28526;-82
2022/04/17 01:51:09;;;;;;;;;;;;;;;;;;5094922;27;28360;-83
2022/04/17 01:53:35;;;;;;;;;;;;;;;;;;5094047;28;29454;-82
2022/04/17 01:56:00;;;;;;;;;;;;;;;;;;5094711;28;28350;-83
2022/04/17 01:58:25;;;;;;;;;;;;;;;;;;5094556;27;28402;-83
2022/04/17 02:00:50;;;;;;;;;;;;;;;;;;5096136;28;28437;-83
2022/04/17 02:03:15;;;;;;;;;;;;;;;;;;5096187;28;28394;-82
2022/04/17 02:05:40;;;;;;;;;;;;;;;;;;5095989;28;28542;-82
2022/04/17 02:08:06;;;;;;;;;;;;;;;;;;5097019;27;28429;-83
2022/04/17 02:10:31;;;;;;;;;;;;;;;;;;5095862;27;28403;-82
2022/04/17 02:12:56;;;;;;;;;;;;;;;;;;5095701;28;28324;-82
2022/04/17 02:15:21;;;;;;;;;;;;;;;;;;5096186;28;28250;-82
2022/04/17 02:17:46;;;;;;;;;;;;;;;;;;5095944;27;28391;-82
2022/04/17 02:20:11;;;;;;;;;;;;;;;;;;5114089;27;28476;-82
2022/04/17 02:22:36;;;;;;;;;;;;;;;;;;5116234;27;28591;-82
2022/04/17 02:25:02;;;;;;;;;;;;;;;;;;5114941;27;28323;-83
2022/04/17 02:27:27;;;;;;;;;;;;;;;;;;5116289;27;28435;-82
2022/04/17 02:29:52;;;;;;;;;;;;;;;;;;5116191;27;28382;-83
2022/04/17 02:32:17;;;;;;;;;;;;;;;;;;5116314;27;28487;-82
2022/04/17 02:34:42;;;;;;;;;;;;;;;;;;5099749;27;27893;-83
2022/04/17 02:37:07;;;;;;;;;;;;;;;;;;5095948;28;27649;-82
2022/04/17 02:39:33;;;;;;;;;;;;;;;;;;5095329;28;28235;-82
2022/04/17 02:41:58;;;;;;;;;;;;;;;;;;5094099;28;29562;-82
2022/04/17 02:44:23;;;;;;;;;;;;;;;;;;5099927;27;29362;-82
2022/04/17 02:49:31;;;;;;;;;;;;;;;;;;5116068;27;28259;-82
2022/04/17 02:51:57;;;;;;;;;;;;;;;;;;5114574;27;28665;-82
2022/04/17 02:54:22;;;;;;;;;;;;;;;;;;5115905;27;28421;-82
2022/04/17 02:56:47;;;;;;;;;;;;;;;;;;5115587;27;28449;-83
2022/04/17 02:59:12;;;;;;;;;;;;;;;;;;5112895;27;28291;-82
2022/04/17 03:07:05;;;;;;;;;;;;;;;;;;5119596;27;28449;-82
2022/04/17 03:09:30;;;;;;;;;;;;;;;;;;5106370;27;28362;-82
2022/04/17 03:11:55;;;;;;;;;;;;;;;;;;5097265;28;28845;-82
2022/04/17 03:14:20;;;;;;;;;;;;;;;;;;5099087;28;28402;-82
2022/04/17 03:16:45;;;;;;;;;;;;;;;;;;5098898;28;28454;-82
2022/04/17 03:19:11;;;;;;;;;;;;;;;;;;5098895;27;28444;-82
2022/04/17 03:21:36;;;;;;;;;;;;;;;;;;5098800;28;29659;-82
2022/04/17 03:24:01;;;;;;;;;;;;;;;;;;5098682;28;28410;-82
2022/04/17 03:26:26;;;;;;;;;;;;;;;;;;5098785;28;28264;-82
2022/04/17 03:28:54;;;;;;;;;;;;;;;;;;5097346;28;28594;-82
2022/04/17 03:31:19;;;;;;;;;;;;;;;;;;5098358;27;28480;-82
2022/04/17 03:33:44;;;;;;;;;;;;;;;;;;5105241;27;28300;-82
2022/04/17 03:36:09;;;;;;;;;;;;;;;;;;5119056;27;28370;-82
2022/04/17 03:38:34;;;;;;;;;;;;;;;;;;5113052;27;28601;-82
2022/04/17 03:40:59;;;;;;;;;;;;;;;;;;5098230;28;29566;-82
2022/04/17 03:43:24;;;;;;;;;;;;;;;;;;5098552;28;28241;-82
2022/04/17 03:45:50;;;;;;;;;;;;;;;;;;5107675;27;28267;-82
2022/04/17 03:48:16;;;;;;;;;;;;;;;;;;5118131;27;28335;-82
2022/04/17 03:50:42;;;;;;;;;;;;;;;;;;5118778;27;28392;-82
2022/04/17 03:53:07;;;;;;;;;;;;;;;;;;5114326;27;28365;-82
2022/04/17 03:55:33;;;;;;;;;;;;;;;;;;5098417;28;28389;-82
2022/04/17 03:57:58;;;;;;;;;;;;;;;;;;5100254;27;28628;-82
2022/04/17 04:00:23;;;;;;;;;;;;;;;;;;5118067;27;29513;-82
2022/04/17 04:02:48;;;;;;;;;;;;;;;;;;5118664;27;28378;-82
2022/04/17 04:05:14;;;;;;;;;;;;;;;;;;5118373;27;28316;-82
2022/04/17 04:07:39;;;;;;;;;;;;;;;;;;5114588;27;28493;-82
2022/04/17 04:10:04;;;;;;;;;;;;;;;;;;5113064;27;28473;-82
2022/04/17 04:12:29;;;;;;;;;;;;;;;;;;5118217;27;28429;-82
2022/04/17 04:14:54;;;;;;;;;;;;;;;;;;5118681;27;28375;-82
2022/04/17 04:17:19;;;;;;;;;;;;;;;;;;5118220;27;28361;-82
2022/04/17 04:19:44;;;;;;;;;;;;;;;;;;5098049;27;28445;-82
2022/04/17 04:22:09;;;;;;;;;;;;;;;;;;5097717;27;28421;-82
2022/04/17 04:24:35;;;;;;;;;;;;;;;;;;5097883;27;28397;-82
2022/04/17 04:29:44;;;;;;;;;;;;;;;;;;5098498;27;28385;-83
2022/04/17 04:32:09;;;;;;;;;;;;;;;;;;5097484;28;27818;-83
2022/04/17 04:34:34;;;;;;;;;;;;;;;;;;5097790;28;28483;-83
2022/04/17 04:37:00;;;;;;;;;;;;;;;;;;5097742;28;28403;-82
2022/04/17 04:39:25;;;;;;;;;;;;;;;;;;5097383;27;28315;-82
2022/04/17 04:41:50;;;;;;;;;;;;;;;;;;5097519;28;28381;-82
2022/04/17 04:44:15;;;;;;;;;;;;;;;;;;5107797;27;28322;-82
2022/04/17 04:46:40;;;;;;;;;;;;;;;;;;5117760;27;28547;-82
2022/04/17 04:51:49;;;;;;;;;;;;;;;;;;5117831;27;28378;-82
2022/04/17 04:54:14;;;;;;;;;;;;;;;;;;5114308;27;28508;-82
2022/04/17 04:56:39;;;;;;;;;;;;;;;;;;5114148;27;28576;-82
2022/04/17 04:59:04;;;;;;;;;;;;;;;;;;5098823;27;28414;-83
2022/04/17 05:01:30;;;;;;;;;;;;;;;;;;5097230;28;28401;-82
2022/04/17 05:03:55;;;;;;;;;;;;;;;;;;5097203;28;28445;-83
2022/04/17 05:06:20;;;;;;;;;;;;;;;;;;5097411;28;28404;-82
2022/04/17 05:08:45;;;;;;;;;;;;;;;;;;5096815;28;28549;-82
2022/04/17 05:11:10;;;;;;;;;;;;;;;;;;5097075;28;28540;-82
2022/04/17 05:13:35;;;;;;;;;;;;;;;;;;5096938;28;28343;-83
2022/04/17 05:16:00;;;;;;;;;;;;;;;;;;5097138;28;28426;-83
2022/04/17 05:18:25;;;;;;;;;;;;;;;;;;5096684;28;28337;-83
2022/04/17 05:20:51;;;;;;;;;;;;;;;;;;5096695;28;27850;-83
2022/04/17 05:23:22;;;;;;;;;;;;;;;;;;5096801;27;28332;-83
2022/04/17 05:25:47;;;;;;;;;;;;;;;;;;5097055;27;28347;-82
2022/04/17 05:28:12;;;;;;;;;;;;;;;;;;5094398;28;30012;-83
2022/04/17 05:30:37;;;;;;;;;;;;;;;;;;5096905;28;28399;-83
2022/04/17 05:33:03;;;;;;;;;;;;;;;;;;5096568;28;28385;-82
2022/04/17 05:35:28;;;;;;;;;;;;;;;;;;5096819;28;28311;-82
2022/04/17 05:37:53;;;;;;;;;;;;;;;;;;5096530;28;28406;-83
2022/04/17 05:40:18;;;;;;;;;;;;;;;;;;5096456;28;28388;-82
2022/04/17 05:42:43;;;;;;;;;;;;;;;;;;5096596;28;28396;-82
2022/04/17 05:45:08;;;;;;;;;;;;;;;;;;5096649;28;28311;-82
2022/04/17 05:47:33;;;;;;;;;;;;;;;;;;5095717;28;28398;-82
2022/04/17 05:49:58;;;;;;;;;;;;;;;;;;5094126;28;28379;-82
2022/04/17 05:52:23;;;;;;;;;;;;;;;;;;5096000;28;28417;-82
2022/04/17 05:54:49;;;;;;;;;;;;;;;;;;5096280;28;28331;-82
2022/04/17 05:57:14;;;;;;;;;;;;;;;;;;5095881;28;28419;-81
2022/04/17 05:59:39;;;;;;;;;;;;;;;;;;5095399;28;28458;-81
2022/04/17 06:02:04;;;;;;;;;;;;;;;;;;5096071;28;28759;-81
2022/04/17 06:04:29;;;;;;;;;;;;;;;;;;5096328;28;28418;-78
2022/04/17 06:06:54;;;;;;;;;;;;;;;;;;5095954;28;28377;-84
2022/04/17 06:09:19;;;;;;;;;;;;;;;;;;5096062;28;28343;-82
2022/04/17 06:11:44;;;;;;;;;;;;;;;;;;5096645;27;28493;-82
2022/04/17 06:14:09;;;;;;;;;;;;;;;;;;5095345;28;27985;-83
2022/04/17 06:16:35;;;;;;;;;;;;;;;;;;5095522;28;28338;-83
2022/04/17 06:19:00;;;;;;;;;;;;;;;;;;5095525;28;28405;-83
2022/04/17 06:21:25;;;;;;;;;;;;;;;;;;5095843;28;28320;-84
2022/04/17 06:23:50;;;;;;;;;;;;;;;;;;5095604;28;28767;-82
2022/04/17 06:26:15;;;;;;;;;;;;;;;;;;5095180;28;28473;-81
2022/04/17 06:28:40;;;;;;;;;;;;;;;;;;5095719;28;28643;-82
2022/04/17 06:31:07;;;;;;;;;;;;;;;;;;5094563;28;28359;-82
2022/04/17 06:33:32;;;;;;;;;;;;;;;;;;5094245;28;28568;-82
2022/04/17 06:35:57;;;;;;;;;;;;;;;;;;5095425;27;28342;-85
2022/04/17 06:38:23;;;;;;;;;;;;;;;;;;5093295;28;28405;-81
2022/04/17 06:40:48;;;;;;;;;;;;;;;;;;5089444;28;28449;-81
2022/04/17 06:43:13;;;;;;;;;;;;;;;;;;5094885;28;28464;-81
2022/04/17 06:45:38;;;;;;;;;;;;;;;;;;5095293;28;28562;-81
2022/04/17 06:48:04;;;;;;;;;;;;;;;;;;5095565;28;28465;-82
2022/04/17 06:50:29;;;;;;;;;;;;;;;;;;5095322;28;28244;-82
2022/04/17 06:52:54;;;;;;;;;;;;;;;;;;5095571;28;28375;-81
2022/04/17 06:55:19;;;;;;;;;;;;;;;;;;5095239;28;28252;-81
2022/04/17 06:57:44;;;;;;;;;;;;;;;;;;5110761;27;28560;-81
2022/04/17 07:00:10;;;;;;;;;;;;;;;;;;5095090;28;28237;-81
2022/04/17 07:02:35;;;;;;;;;;;;;;;;;;5095215;28;28472;-81
2022/04/17 07:05:00;;;;;;;;;;;;;;;;;;5095249;28;28302;-82
2022/04/17 07:07:25;;;;;;;;;;;;;;;;;;5095224;28;28663;-82
2022/04/17 07:09:51;;;;;;;;;;;;;;;;;;5095142;28;28413;-82
2022/04/17 07:12:16;;;;;;;;;;;;;;;;;;5095100;28;28473;-81
2022/04/17 07:14:41;;;;;;;;;;;;;;;;;;5094845;28;28474;-81
2022/04/17 07:17:06;;;;;;;;;;;;;;;;;;5094893;28;28382;-82
2022/04/17 07:19:31;;;;;;;;;;;;;;;;;;5094858;28;28437;-82
2022/04/17 07:21:57;;;;;;;;;;;;;;;;;;5095018;28;28457;-81
2022/04/17 07:24:24;;;;;;;;;;;;;;;;;;5094684;28;28433;-82
2022/04/17 07:26:53;;;;;;;;;;;;;;;;;;5094845;28;28457;-82
2022/04/17 07:29:21;;;;;;;;;;;;;;;;;;5094866;28;28358;-82
2022/04/17 07:31:46;;;;;;;;;;;;;;;;;;5094936;28;28432;-82
2022/04/17 07:34:11;;;;;;;;;;;;;;;;;;5094836;28;28464;-82
2022/04/17 07:36:36;;;;;;;;;;;;;;;;;;5094970;28;28401;-82
2022/04/17 07:39:01;;;;;;;;;;;;;;;;;;5094679;28;28484;-82
2022/04/17 07:41:26;;;;;;;;;;;;;;;;;;5095127;28;28340;-82
2022/04/17 07:43:51;;;;;;;;;;;;;;;;;;5094451;28;28356;-82
2022/04/17 07:46:17;;;;;;;;;;;;;;;;;;5094408;28;28531;-82
2022/04/17 07:48:42;;;;;;;;;;;;;;;;;;5094863;28;28333;-82
2022/04/17 07:51:07;;;;;;;;;;;;;;;;;;5096576;28;28425;-81
2022/04/17 07:53:32;;;;;;;;;;;;;;;;;;5097828;28;29251;-81
2022/04/17 07:55:57;;;;;;;;;;;;;;;;;;5097799;28;28363;-81
2022/04/17 07:58:30;;;;;;;;;;;;;;;;;;5098274;28;28379;-82
2022/04/17 08:00:58;;;;;;;;;;;;;;;;;;5097862;28;28588;-81
2022/04/17 08:03:46;;;;;;;;;;;;;;;;;;5098039;28;28473;-82
2022/04/17 08:06:11;;;;;;;;;;;;;;;;;;5097930;28;28326;-81
2022/04/17 08:08:36;;;;;;;;;;;;;;;;;;5098147;28;28327;-81
2022/04/17 08:11:01;;;;;;;;;;;;;;;;;;5097860;28;28292;-82
2022/04/17 08:13:26;;;;;;;;;;;;;;;;;;5097462;28;28990;-81
2022/04/17 08:15:51;;;;;;;;;;;;;;;;;;5113184;27;28524;-81
2022/04/17 08:18:16;;;;;;;;;;;;;;;;;;5097101;28;28370;-82
2022/04/17 08:20:41;;;;;;;;;;;;;;;;;;5097128;28;28291;-82
2022/04/17 08:23:06;;;;;;;;;;;;;;;;;;5097624;28;28685;-82
2022/04/17 08:25:33;;;;;;;;;;;;;;;;;;5097477;28;28618;-81
2022/04/17 08:27:58;;;;;;;;;;;;;;;;;;5113324;27;28293;-82
2022/04/17 08:30:23;;;;;;;;;;;;;;;;;;5097679;28;28327;-82
2022/04/17 08:32:48;;;;;;;;;;;;;;;;;;5097284;28;29313;-82
2022/04/17 08:35:13;;;;;;;;;;;;;;;;;;5096942;28;28405;-80
2022/04/17 08:37:38;;;;;;;;;;;;;;;;;;5097319;28;28441;-81
2022/04/17 08:40:03;;;;;;;;;;;;;;;;;;5097648;28;28319;-83
2022/04/17 08:42:28;;;;;;;;;;;;;;;;;;5097150;28;29199;-80
2022/04/17 08:44:53;;;;;;;;;;;;;;;;;;5097529;28;28515;-80
2022/04/17 08:47:18;;;;;;;;;;;;;;;;;;5097156;28;28393;-82
2022/04/17 08:49:44;;;;;;;;;;;;;;;;;;5096552;28;28272;-81
2022/04/17 08:52:14;;;;;;;;;;;;;;;;;;5096873;28;29256;-81
2022/04/17 08:54:40;;;;;;;;;;;;;;;;;;5097090;27;28347;-81
2022/04/17 08:57:05;;;;;;;;;;;;;;;;;;5097337;27;27808;-81
2022/04/17 08:59:32;;;;;;;;;;;;;;;;;;5097083;28;28264;-81
2022/04/17 09:01:57;;;;;;;;;;;;;;;;;;5095521;27;28629;-81
2022/04/17 09:04:22;;;;;;;;;;;;;;;;;;5112993;27;28525;-84
2022/04/17 09:06:47;;;;;;;;;;;;;;;;;;5097076;28;28307;-82
2022/04/17 09:09:12;;;;;;;;;;;;;;;;;;5113217;27;27949;-82
2022/04/17 09:11:37;;;;;;;;;;;;;;;;;;5096802;28;28361;-82
2022/04/17 09:14:02;;;;;;;;;;;;;;;;;;5096767;28;28390;-83
2022/04/17 09:16:27;;;;;;;;;;;;;;;;;;5097006;28;28246;-82
2022/04/17 09:18:53;;;;;;;;;;;;;;;;;;5096307;28;28461;-80
2022/04/17 09:21:18;;;;;;;;;;;;;;;;;;5096678;28;28537;-81
2022/04/17 09:23:43;;;;;;;;;;;;;;;;;;5096872;28;28456;-82
2022/04/17 09:26:08;;;;;;;;;;;;;;;;;;5096802;28;28381;-83
2022/04/17 09:28:33;;;;;;;;;;;;;;;;;;5094522;28;28229;-83
2022/04/17 09:31:00;;;;;;;;;;;;;;;;;;5094911;28;28947;-82
2022/04/17 09:33:26;;;;;;;;;;;;;;;;;;5096410;28;28496;-82
2022/04/17 09:35:51;;;;;;;;;;;;;;;;;;5096426;28;28460;-85
2022/04/17 09:38:16;;;;;;;;;;;;;;;;;;5096589;28;28465;-85
2022/04/17 09:40:41;;;;;;;;;;;;;;;;;;5096123;28;28501;-84
2022/04/17 09:43:06;;;;;;;;;;;;;;;;;;5096276;28;28505;-84
2022/04/17 09:45:31;;;;;;;;;;;;;;;;;;5111997;27;28458;-85
2022/04/17 09:47:56;;;;;;;;;;;;;;;;;;5096573;28;28377;-83
2022/04/17 09:50:22;;;;;;;;;;;;;;;;;;5096054;28;28473;-84
2022/04/17 09:52:48;;;;;;;;;;;;;;;;;;5096034;27;28373;-83
2022/04/17 09:55:14;;;;;;;;;;;;;;;;;;5096160;27;28310;-83
2022/04/17 09:57:39;;;;;;;;;;;;;;;;;;5096505;28;28480;-84
2022/04/17 10:00:04;;;;;;;;;;;;;;;;;;5095771;28;29441;-84
2022/04/17 10:02:29;;;;;;;;;;;;;;;;;;5095965;28;28413;-86
2022/04/17 10:04:54;;;;;;;;;;;;;;;;;;5095773;28;28354;-84
2022/04/17 10:07:19;;;;;;;;;;;;;;;;;;5096305;28;27815;-85
2022/04/17 10:09:44;;;;;;;;;;;;;;;;;;5096053;28;29427;-86
2022/04/17 10:12:10;;;;;;;;;;;;;;;;;;5095824;28;28434;-85
2022/04/17 10:14:35;;;;;;;;;;;;;;;;;;5095697;28;28418;-86
2022/04/17 10:17:00;;;;;;;;;;;;;;;;;;5095968;28;28490;-85
2022/04/17 10:19:25;;;;;;;;;;;;;;;;;;5095795;28;28350;-84
2022/04/17 10:21:50;;;;;;;;;;;;;;;;;;5095962;28;28460;-85
2022/04/17 10:24:15;;;;;;;;;;;;;;;;;;5095680;28;28361;-86
2022/04/17 10:26:41;;;;;;;;;;;;;;;;;;5095848;28;28589;-85
2022/04/17 10:29:06;;;;;;;;;;;;;;;;;;5095556;27;28264;-86
2022/04/17 10:31:31;;;;;;;;;;;;;;;;;;5111258;27;28235;-86
2022/04/17 10:33:56;;;;;;;;;;;;;;;;;;5095658;28;28341;-84
2022/04/17 10:36:21;;;;;;;;;;;;;;;;;;5095541;28;28314;-84
2022/04/17 10:38:46;;;;;;;;;;;;;;;;;;5095507;28;28393;-85
2022/04/17 10:41:12;;;;;;;;;;;;;;;;;;5095250;28;28294;-86
2022/04/17 10:43:37;;;;;;;;;;;;;;;;;;5095588;27;28230;-86
2022/04/17 10:46:02;;;;;;;;;;;;;;;;;;5110917;27;28428;-84
2022/04/17 10:48:28;;;;;;;;;;;;;;;;;;5095360;28;28522;-85
2022/04/17 10:50:53;;;;;;;;;;;;;;;;;;5110905;27;28402;-85
2022/04/17 10:53:18;;;;;;;;;;;;;;;;;;5095466;28;28313;-86
2022/04/17 10:55:43;;;;;;;;;;;;;;;;;;5111490;27;28307;-86
2022/04/17 10:58:08;;;;;;;;;;;;;;;;;;5095341;28;28571;-87
2022/04/17 11:00:36;;;;;;;;;;;;;;;;;;5094829;28;28331;-84
2022/04/17 11:03:01;;;;;;;;;;;;;;;;;;5095267;27;28891;-87
2022/04/17 11:05:26;;;;;;;;;;;;;;;;;;5095355;28;28424;-85
2022/04/17 11:07:52;;;;;;;;;;;;;;;;;;5095122;28;28453;-86
2022/04/17 11:10:17;;;;;;;;;;;;;;;;;;5095130;28;31317;-85
2022/04/17 11:12:42;;;;;;;;;;;;;;;;;;5094969;27;28496;-81
2022/04/17 11:15:07;;;;;;;;;;;;;;;;;;5095274;28;28392;-80
2022/04/17 11:17:32;;;;;;;;;;;;;;;;;;5094950;28;28615;-79
2022/04/17 11:19:57;;;;;;;;;;;;;;;;;;5094788;28;28505;-82
2022/04/17 11:22:23;;;;;;;;;;;;;;;;;;5094908;28;28366;-82
2022/04/17 11:24:48;;;;;;;;;;;;;;;;;;5094723;28;28485;-82
2022/04/17 11:27:13;;;;;;;;;;;;;;;;;;5098660;28;28337;-83
2022/04/17 11:29:38;;;;;;;;;;;;;;;;;;5098617;27;28484;-81
2022/04/17 11:32:03;;;;;;;;;;;;;;;;;;5098238;28;28339;-81
2022/04/17 11:34:28;;;;;;;;;;;;;;;;;;5098361;28;28472;-81
2022/04/17 11:36:53;;;;;;;;;;;;;;;;;;5098026;28;28463;-81
2022/04/17 11:39:19;;;;;;;;;;;;;;;;;;5098087;28;28376;-81
2022/04/17 11:41:44;;;;;;;;;;;;;;;;;;5098330;28;28493;-80
2022/04/17 11:44:09;;;;;;;;;;;;;;;;;;5098450;28;28398;-78
2022/04/17 11:46:34;;;;;;;;;;;;;;;;;;5097842;28;28441;-79
2022/04/17 11:48:59;;;;;;;;;;;;;;;;;;5098199;28;28339;-79
2022/04/17 11:51:24;;;;;;;;;;;;;;;;;;5098070;28;28404;-79
2022/04/17 11:53:49;;;;;;;;;;;;;;;;;;5098087;28;28466;-79
2022/04/17 11:56:14;;;;;;;;;;;;;;;;;;5098253;28;28607;-79
2022/04/17 11:58:39;;;;;;;;;;;;;;;;;;5097692;28;28464;-79
2022/04/17 12:01:05;;;;;;;;;;;;;;;;;;5098013;28;28246;-79
2022/04/17 12:03:31;;;;;;;;;;;;;;;;;;5098211;27;28536;-79
2022/04/17 12:05:56;;;;;;;;;;;;;;;;;;5097496;28;29440;-79
2022/04/17 12:08:21;;;;;;;;;;;;;;;;;;5098230;28;27796;-79
2022/04/17 12:10:46;;;;;;;;;;;;;;;;;;5098166;28;27703;-79
2022/04/17 12:13:11;;;;;;;;;;;;;;;;;;5098264;28;28266;-80
2022/04/17 12:15:36;;;;;;;;;;;;;;;;;;5097655;27;28304;-80
2022/04/17 12:18:02;;;;;;;;;;;;;;;;;;5113668;27;28488;-79
2022/04/17 12:20:27;;;;;;;;;;;;;;;;;;5098033;28;28333;-79
2022/04/17 12:22:52;;;;;;;;;;;;;;;;;;5097971;28;28398;-79
2022/04/17 12:25:17;;;;;;;;;;;;;;;;;;5097779;27;29499;-79
2022/04/17 12:27:42;;;;;;;;;;;;;;;;;;5097712;27;28375;-79
2022/04/17 12:30:08;;;;;;;;;;;;;;;;;;5098109;28;28270;-79
2022/04/17 12:32:33;;;;;;;;;;;;;;;;;;5113511;27;28311;-79
2022/04/17 12:34:58;;;;;;;;;;;;;;;;;;5097583;28;28539;-79
2022/04/17 12:37:23;;;;;;;;;;;;;;;;;;5097610;28;28315;-79
2022/04/17 12:39:48;;;;;;;;;;;;;;;;;;5097635;28;28295;-79
2022/04/17 12:42:14;;;;;;;;;;;;;;;;;;5097953;28;28482;-79
2022/04/17 12:44:39;;;;;;;;;;;;;;;;;;5097264;27;28425;-79
2022/04/17 12:47:04;;;;;;;;;;;;;;;;;;5097139;28;28293;-79
2022/04/17 12:49:29;;;;;;;;;;;;;;;;;;5097475;28;28239;-79
2022/04/17 12:51:54;;;;;;;;;;;;;;;;;;5097605;28;28287;-79
2022/04/17 12:54:19;;;;;;;;;;;;;;;;;;5097340;28;28556;-79
2022/04/17 12:56:44;;;;;;;;;;;;;;;;;;5097228;28;28354;-81
2022/04/17 12:59:11;;;;;;;;;;;;;;;;;;5097179;28;28232;-79
2022/04/17 13:01:40;;;;;;;;;;;;;;;;;;5097326;27;28500;-79
2022/04/17 13:04:05;;;;;;;;;;;;;;;;;;5097045;27;28423;-79
2022/04/17 13:06:30;;;;;;;;;;;;;;;;;;5097269;28;28370;-79
2022/04/17 13:08:55;;;;;;;;;;;;;;;;;;5097214;28;28338;-80
2022/04/17 13:11:20;;;;;;;;;;;;;;;;;;5097286;28;28432;-79
2022/04/17 13:13:45;;;;;;;;;;;;;;;;;;5097034;28;28394;-81
2022/04/17 13:16:12;;;;;;;;;;;;;;;;;;5096811;28;28322;-79
2022/04/17 13:18:38;;;;;;;;;;;;;;;;;;5112763;27;28366;-78
2022/04/17 13:21:03;;;;;;;;;;;;;;;;;;5096952;27;28229;-78
2022/04/17 13:23:28;;;;;;;;;;;;;;;;;;5096837;28;28581;-77
2022/04/17 13:25:53;;;;;;;;;;;;;;;;;;5096927;28;28409;-77
2022/04/17 13:28:18;;;;;;;;;;;;;;;;;;5096841;28;28309;-80
2022/04/17 13:30:44;;;;;;;;;;;;;;;;;;5096800;28;28437;-79
2022/04/17 13:33:09;;;;;;;;;;;;;;;;;;5096480;28;29804;-79
2022/04/17 13:35:34;;;;;;;;;;;;;;;;;;5096634;28;28377;-79
2022/04/17 13:38:11;;;;;;;;;;;;;;;;;;5096807;28;28287;-79
2022/04/17 13:40:36;;;;;;;;;;;;;;;;;;5096687;28;27879;-79
2022/04/17 13:43:01;;;;;;;;;;;;;;;;;;5096590;28;28436;-80
2022/04/17 13:45:27;;;;;;;;;;;;;;;;;;5096621;28;31318;-79
2022/04/17 13:47:52;;;;;;;;;;;;;;;;;;5095804;28;27846;-79
2022/04/17 13:50:17;;;;;;;;;;;;;;;;;;5096841;28;28464;-79
2022/04/17 13:52:42;;;;;;;;;;;;;;;;;;5096315;28;29334;-80
2022/04/17 13:55:09;;;;;;;;;;;;;;;;;;5096456;28;28513;-79
2022/04/17 13:57:34;;;;;;;;;;;;;;;;;;5096523;27;28372;-79
2022/04/17 13:59:59;;;;;;;;;;;;;;;;;;5096299;28;28315;-79
2022/04/17 14:02:24;;;;;;;;;;;;;;;;;;5096284;28;28423;-79
2022/04/17 14:04:49;;;;;;;;;;;;;;;;;;5096200;28;28444;-79
2022/04/17 14:07:14;;;;;;;;;;;;;;;;;;5096307;28;28311;-79
2022/04/17 14:09:40;;;;;;;;;;;;;;;;;;5096107;28;28479;-79
2022/04/17 14:12:14;;;;;;;;;;;;;;;;;;5096085;27;29212;-79
2022/04/17 14:14:39;;;;;;;;;;;;;;;;;;5096122;27;28347;-78
2022/04/17 14:17:04;;;;;;;;;;;;;;;;;;5095978;28;28326;-78
2022/04/17 14:19:29;;;;;;;;;;;;;;;;;;5096131;28;28307;-80
2022/04/17 14:21:55;;;;;;;;;;;;;;;;;;5093729;28;28555;-80
2022/04/17 14:24:20;;;;;;;;;;;;;;;;;;5093372;28;28473;-80
2022/04/17 14:26:45;;;;;;;;;;;;;;;;;;5095854;28;28364;-80
2022/04/17 14:29:10;;;;;;;;;;;;;;;;;;5095838;28;28566;-79
2022/04/17 14:31:35;;;;;;;;;;;;;;;;;;5095713;28;29285;-79
2022/04/17 14:34:00;;;;;;;;;;;;;;;;;;5095772;28;28498;-79
2022/04/17 14:36:26;;;;;;;;;;;;;;;;;;5095293;28;28390;-79
2022/04/17 14:38:52;;;;;;;;;;;;;;;;;;5095784;27;27938;-79
2022/04/17 14:41:17;;;;;;;;;;;;;;;;;;5095303;28;28997;-80
2022/04/17 14:43:42;;;;;;;;;;;;;;;;;;5095536;28;28429;-80
2022/04/17 14:46:07;;;;;;;;;;;;;;;;;;5095320;28;28274;-79
2022/04/17 14:48:32;;;;;;;;;;;;;;;;;;5095479;27;28518;-79
2022/04/17 14:50:58;;;;;;;;;;;;;;;;;;5095313;28;28679;-79
2022/04/17 14:53:24;;;;;;;;;;;;;;;;;;5111002;27;28346;-79
2022/04/17 14:55:49;;;;;;;;;;;;;;;;;;5095451;28;28936;-79
2022/04/17 14:58:14;;;;;;;;;;;;;;;;;;5110763;27;28361;-79
2022/04/17 15:00:39;;;;;;;;;;;;;;;;;;5096061;28;28419;-80
2022/04/17 15:03:04;;;;;;;;;;;;;;;;;;5098613;28;28326;-80
2022/04/17 15:05:29;;;;;;;;;;;;;;;;;;5098714;28;28305;-78
2022/04/17 15:07:54;;;;;;;;;;;;;;;;;;5098757;28;28302;-79
2022/04/17 15:10:19;;;;;;;;;;;;;;;;;;5098588;28;28351;-79
2022/04/17 15:12:45;;;;;;;;;;;;;;;;;;5098628;28;28229;-80
2022/04/17 15:15:10;;;;;;;;;;;;;;;;;;5098629;27;28568;-78
2022/04/17 15:17:35;;;;;;;;;;;;;;;;;;5098508;28;28241;-79
2022/04/17 15:20:00;;;;;;;;;;;;;;;;;;5098482;28;29443;-79
2022/04/17 15:22:25;;;;;;;;;;;;;;;;;;5098509;28;28221;-79
2022/04/17 15:24:50;;;;;;;;;;;;;;;;;;5098438;28;28617;-78
2022/04/17 15:27:15;;;;;;;;;;;;;;;;;;5098780;28;28394;-79
2022/04/17 15:29:41;;;;;;;;;;;;;;;;;;5098422;28;28489;-79
2022/04/17 15:32:06;;;;;;;;;;;;;;;;;;5098240;28;28411;-79
2022/04/17 15:34:31;;;;;;;;;;;;;;;;;;5098349;28;28544;-79
2022/04/17 15:36:58;;;;;;;;;;;;;;;;;;5098506;28;28390;-79
2022/04/17 15:39:23;;;;;;;;;;;;;;;;;;5098352;27;28580;-80
2022/04/17 15:41:48;;;;;;;;;;;;;;;;;;5098124;28;28516;-79
2022/04/17 15:49:40;;;;;;;;;;;;;;;;;;5098079;28;28470;-79
2022/04/17 15:52:06;;;;;;;;;;;;;;;;;;5098187;28;28383;-79
2022/04/17 15:54:31;;;;;;;;;;;;;;;;;;5098172;28;27823;-79
2022/04/17 15:56:56;;;;;;;;;;;;;;;;;;5097891;28;28464;-79
2022/04/17 15:59:22;;;;;;;;;;;;;;;;;;5097487;28;28667;-79
2022/04/17 16:01:47;;;;;;;;;;;;;;;;;;5097827;27;28434;-80
2022/04/17 16:04:12;;;;;;;;;;;;;;;;;;5097600;28;28384;-83
2022/04/17 16:06:37;;;;;;;;;;;;;;;;;;5098110;28;28373;-80
2022/04/17 16:09:02;;;;;;;;;;;;;;;;;;5113339;27;28743;-82
2022/04/17 16:11:27;;;;;;;;;;;;;;;;;;5097608;28;28351;-81
2022/04/17 16:13:52;;;;;;;;;;;;;;;;;;5097734;28;28383;-81
2022/04/17 16:16:17;;;;;;;;;;;;;;;;;;5097539;28;28346;-81
2022/04/17 16:18:43;;;;;;;;;;;;;;;;;;5097329;28;28289;-81
2022/04/17 16:21:08;;;;;;;;;;;;;;;;;;5097534;27;28383;-81
2022/04/17 16:23:33;;;;;;;;;;;;;;;;;;5097742;27;28347;-81
2022/04/17 16:25:59;;;;;;;;;;;;;;;;;;5097783;28;28441;-81
2022/04/17 16:28:24;;;;;;;;;;;;;;;;;;5097117;28;29290;-81
2022/04/17 16:30:49;;;;;;;;;;;;;;;;;;5097627;28;28481;-82
2022/04/17 16:33:14;;;;;;;;;;;;;;;;;;5097433;28;28506;-80
2022/04/17 16:35:39;;;;;;;;;;;;;;;;;;5097721;28;28504;-81
2022/04/17 16:38:04;;;;;;;;;;;;;;;;;;5097255;28;28523;-83
2022/04/17 16:40:29;;;;;;;;;;;;;;;;;;5097152;28;28418;-82
2022/04/17 16:42:54;;;;;;;;;;;;;;;;;;5097626;28;28430;-81
2022/04/17 16:45:20;;;;;;;;;;;;;;;;;;5096442;28;28460;-82
2022/04/17 16:47:45;;;;;;;;;;;;;;;;;;5097100;28;29002;-82
2022/04/17 16:50:10;;;;;;;;;;;;;;;;;;5096884;28;28090;-82
2022/04/17 16:52:35;;;;;;;;;;;;;;;;;;5097197;28;28488;-79
2022/04/17 16:55:00;;;;;;;;;;;;;;;;;;5097453;28;28327;-79